Algona, Washington
Current Conditions -  °F | °C
As of 7:53 PM on Friday 24 Oct 2014 (Local Time) from KSEA Reporting Station
Light Rain Light Rain  
Wind Chill: 54°   Ceiling: 6000
Heat Index: 54°   Visibility: 9mi
Dew Point: 47°   Wind: 10mph
Humidity: 77%   Direction: 80°E
Pressure: 29.86"   Gusts: NA
Location:  47.31°N, 122.266°W
Report Text: KSEA 250253Z 08009KT 9SM -RA OVC060 12/08 A2986 RMK AO2 RAB30 SLP118 P0002 60002 T01220083 56011
Loading
Personal Weather Stations






























Interactive Weather Map
Tropical Storm Tracking
New forecast layout! Learn more

10-Day Weather Forecast

Advertisements
Track Severe Weather on mobile